Time;durP1;ratioP1;P1;durP2;ratioP2;P2;SDS_P1;SDS_P2;PMS_P1;PMS_P2;Temp;Humidity;BMP_temperature;BMP_pressure;BME280_temperature;BME280_humidity;BME280_pressure;Samples;Min_cycle;Max_cycle;Signal;HPM_P1;HPM_P2
2022/04/22 00:00:10;;;;;;;;;;;12.60;60.70;;;;;;5016941;28;20426;-69
2022/04/22 00:02:38;;;;;;;;;;;12.60;61.40;;;;;;5020331;28;19933;-70
2022/04/22 00:05:05;;;;;;;;;;;12.60;61.50;;;;;;5020662;28;19929;-70
2022/04/22 00:07:31;;;;;;;;;;;12.50;61.50;;;;;;5023264;28;19929;-69
2022/04/22 00:09:58;;;;;;;;;;;12.50;61.60;;;;;;5021944;28;19960;-69
2022/04/22 00:12:25;;;;;;;;;;;12.50;61.80;;;;;;5024055;28;19929;-70
2022/04/22 00:14:51;;;;;;;;;;;12.40;61.80;;;;;;5021987;28;19933;-69
2022/04/22 00:17:19;;;;;;;;;;;12.50;62.00;;;;;;5022515;28;19929;-68
2022/04/22 00:19:46;;;;;;;;;;;12.40;62.00;;;;;;5030876;28;20169;-70
2022/04/22 00:22:12;;;;;;;;;;;12.40;62.10;;;;;;5022612;28;19929;-70
2022/04/22 00:24:39;;;;;;;;;;;12.30;62.30;;;;;;5023828;28;19940;-70
2022/04/22 00:27:05;;;;;;;;;;;12.30;62.50;;;;;;5026335;28;20388;-69
2022/04/22 00:29:32;;;;;;;;;;;12.20;62.40;;;;;;5033128;28;20316;-70
2022/04/22 00:31:58;;;;;;;;;;;12.20;62.50;;;;;;5022091;28;20351;-70
2022/04/22 00:34:26;;;;;;;;;;;12.30;62.70;;;;;;5028337;28;20304;-70
2022/04/22 00:36:54;;;;;;;;;;;12.20;62.70;;;;;;5020994;28;19939;-70
2022/04/22 00:39:20;;;;;;;;;;;12.20;62.80;;;;;;5025873;28;20530;-70
2022/04/22 00:41:47;;;;;;;;;;;12.10;62.80;;;;;;5023681;28;20025;-70
2022/04/22 00:44:14;;;;;;;;;;;12.10;62.90;;;;;;5016935;28;19936;-70
2022/04/22 00:46:40;;;;;;;;;;;12.10;62.90;;;;;;5020884;28;20337;-70
2022/04/22 00:49:07;;;;;;;;;;;12.10;63.10;;;;;;5025976;28;20036;-68
2022/04/22 00:51:35;;;;;;;;;;;12.00;63.20;;;;;;5028508;28;19983;-70
2022/04/22 00:54:03;;;;;;;;;;;12.00;63.20;;;;;;5017841;28;19935;-70
2022/04/22 00:56:29;;;;;;;;;;;12.00;63.60;;;;;;5024590;28;20304;-70
2022/04/22 00:58:57;;;;;;;;;;;12.00;63.60;;;;;;5021694;28;19929;-71
2022/04/22 01:01:24;;;;;;;;;;;12.00;63.70;;;;;;5020969;28;19936;-69
2022/04/22 01:12:05;;;;;;;;;;;11.90;64.00;;;;;;5020921;28;19935;-70
2022/04/22 01:14:32;;;;;;;;;;;11.80;64.20;;;;;;5021064;28;19929;-68
2022/04/22 01:17:00;;;;;;;;;;;11.80;64.20;;;;;;5025344;28;19940;-70
2022/04/22 01:19:26;;;;;;;;;;;11.70;64.50;;;;;;5024317;28;20035;-69
2022/04/22 01:21:54;;;;;;;;;;;11.70;64.50;;;;;;5023637;28;19940;-70
2022/04/22 01:24:21;;;;;;;;;;;11.70;64.60;;;;;;5023075;28;19936;-70
2022/04/22 01:26:50;;;;;;;;;;;11.70;64.70;;;;;;5023016;28;19933;-68
2022/04/22 01:29:16;;;;;;;;;;;11.70;64.80;;;;;;5021540;28;19933;-69
2022/04/22 01:31:43;;;;;;;;;;;11.60;64.80;;;;;;5022745;28;19933;-70
2022/04/22 01:34:10;;;;;;;;;;;11.60;64.90;;;;;;5026057;28;20008;-70
2022/04/22 01:36:37;;;;;;;;;;;11.60;65.00;;;;;;5023728;28;21934;-68
2022/04/22 01:39:05;;;;;;;;;;;11.60;65.00;;;;;;5021693;28;19929;-70
2022/04/22 01:41:32;;;;;;;;;;;11.50;65.10;;;;;;5027743;28;19936;-67
2022/04/22 01:43:58;;;;;;;;;;;11.50;65.20;;;;;;5019862;28;20518;-70
2022/04/22 01:46:25;;;;;;;;;;;11.50;65.20;;;;;;5022634;28;20371;-69
2022/04/22 01:48:51;;;;;;;;;;;11.50;65.20;;;;;;5022413;28;19933;-68
2022/04/22 01:51:18;;;;;;;;;;;11.50;65.30;;;;;;5025238;28;19933;-70
2022/04/22 01:53:44;;;;;;;;;;;11.40;65.40;;;;;;5019578;28;20438;-69
2022/04/22 01:56:12;;;;;;;;;;;11.30;65.40;;;;;;5022127;28;19937;-69
2022/04/22 01:58:39;;;;;;;;;;;11.40;65.70;;;;;;5032324;28;20051;-68
2022/04/22 02:01:05;;;;;;;;;;;11.40;65.70;;;;;;5022117;28;20385;-70
2022/04/22 02:03:32;;;;;;;;;;;11.30;65.60;;;;;;5021295;28;19929;-66
2022/04/22 02:05:59;;;;;;;;;;;11.30;65.70;;;;;;5026451;28;19929;-69
2022/04/22 02:08:25;;;;;;;;;;;11.20;65.70;;;;;;5020225;28;20048;-69
2022/04/22 02:10:52;;;;;;;;;;;11.30;65.90;;;;;;5026135;28;19939;-70
2022/04/22 02:13:20;;;;;;;;;;;11.20;65.90;;;;;;5022168;28;19933;-70
2022/04/22 02:15:47;;;;;;;;;;;11.20;66.00;;;;;;5017786;28;19956;-69
2022/04/22 02:18:14;;;;;;;;;;;11.20;66.10;;;;;;5020778;28;19929;-67
2022/04/22 02:20:40;;;;;;;;;;;11.20;66.10;;;;;;5021003;28;19984;-69
2022/04/22 02:23:07;;;;;;;;;;;11.20;66.10;;;;;;5015146;28;19983;-69
2022/04/22 02:25:33;;;;;;;;;;;11.10;66.00;;;;;;5013757;28;19940;-68
2022/04/22 02:30:45;;;;;;;;;;;11.10;66.00;;;;;;5016337;28;19932;-70
2022/04/22 02:33:13;;;;;;;;;;;11.10;66.20;;;;;;5018904;28;19936;-69
2022/04/22 02:35:40;;;;;;;;;;;11.00;66.20;;;;;;5014769;28;19925;-68
2022/04/22 02:38:06;;;;;;;;;;;11.00;66.20;;;;;;5016661;28;19929;-70
2022/04/22 02:46:03;;;;;;;;;;;10.90;66.80;;;;;;5018923;28;19936;-69
2022/04/22 02:48:29;;;;;;;;;;;10.90;66.60;;;;;;5021149;28;19933;-69
2022/04/22 02:50:56;;;;;;;;;;;10.90;66.60;;;;;;5017211;28;19936;-69
2022/04/22 02:53:22;;;;;;;;;;;10.90;66.70;;;;;;5018502;28;20352;-69
2022/04/22 02:55:50;;;;;;;;;;;10.80;66.60;;;;;;5021251;28;19972;-69
2022/04/22 02:58:16;;;;;;;;;;;10.80;66.70;;;;;;5021424;28;19929;-69
2022/04/22 03:00:43;;;;;;;;;;;10.80;66.90;;;;;;5020768;28;19933;-70
2022/04/22 03:03:11;;;;;;;;;;;10.80;66.90;;;;;;5021258;28;19929;-69
2022/04/22 03:05:38;;;;;;;;;;;10.70;66.90;;;;;;5022716;28;20412;-69
2022/04/22 03:08:05;;;;;;;;;;;10.70;66.90;;;;;;5029112;28;19932;-69
2022/04/22 03:10:32;;;;;;;;;;;10.70;67.20;;;;;;5025842;28;19940;-69
2022/04/22 03:12:59;;;;;;;;;;;10.70;67.20;;;;;;5014382;28;20305;-68
2022/04/22 03:15:26;;;;;;;;;;;10.60;67.10;;;;;;5022621;28;19929;-69
2022/04/22 03:17:52;;;;;;;;;;;10.60;67.20;;;;;;5021603;28;20656;-69
2022/04/22 03:20:20;;;;;;;;;;;10.60;67.20;;;;;;5024590;28;19929;-70
2022/04/22 03:22:47;;;;;;;;;;;10.60;67.20;;;;;;5016562;28;19936;-69
2022/04/22 03:25:13;;;;;;;;;;;10.60;67.20;;;;;;5025255;28;19929;-69
2022/04/22 03:27:40;;;;;;;;;;;10.50;67.20;;;;;;5023570;28;19925;-69
2022/04/22 03:30:07;;;;;;;;;;;10.50;67.30;;;;;;5023985;28;19951;-68
2022/04/22 03:32:34;;;;;;;;;;;10.50;67.20;;;;;;5025467;28;19929;-68
2022/04/22 03:35:01;;;;;;;;;;;10.50;67.30;;;;;;5023909;28;19928;-70
2022/04/22 03:37:29;;;;;;;;;;;10.50;67.30;;;;;;5026750;28;19929;-68
2022/04/22 03:39:55;;;;;;;;;;;10.40;67.30;;;;;;5027266;28;19968;-68
2022/04/22 03:42:22;;;;;;;;;;;10.40;67.40;;;;;;5030073;28;20420;-69
2022/04/22 03:44:49;;;;;;;;;;;10.40;67.50;;;;;;5027639;28;19944;-69
2022/04/22 03:47:15;;;;;;;;;;;10.40;67.60;;;;;;5026105;28;19968;-69
2022/04/22 03:49:42;;;;;;;;;;;10.30;67.60;;;;;;5024642;28;19933;-69
2022/04/22 03:52:09;;;;;;;;;;;10.40;67.60;;;;;;5024473;28;20394;-68
2022/04/22 03:54:37;;;;;;;;;;;10.30;67.70;;;;;;5023080;28;20455;-67
2022/04/22 03:59:48;;;;;;;;;;;10.20;67.80;;;;;;5020315;28;20285;-69
2022/04/22 04:02:15;;;;;;;;;;;10.30;67.90;;;;;;5026144;28;19968;-69
2022/04/22 04:04:41;;;;;;;;;;;10.30;68.00;;;;;;5027097;28;20782;-69
2022/04/22 04:07:08;;;;;;;;;;;10.20;68.00;;;;;;5024868;28;19952;-70
2022/04/22 04:17:48;;;;;;;;;;;10.10;68.20;;;;;;5021144;28;20325;-69
2022/04/22 04:25:51;;;;;;;;;;;10.10;68.30;;;;;;5000948;28;19991;-70
2022/04/22 04:28:19;;;;;;;;;;;10.10;68.30;;;;;;5024115;28;19929;-69
2022/04/22 04:30:46;;;;;;;;;;;10.00;68.30;;;;;;5020658;28;20665;-69
2022/04/22 04:33:13;;;;;;;;;;;10.00;68.30;;;;;;5023200;28;20308;-69
2022/04/22 04:35:40;;;;;;;;;;;10.00;68.50;;;;;;5016775;28;19934;-69
2022/04/22 04:38:07;;;;;;;;;;;10.00;68.50;;;;;;5025313;28;20120;-70
2022/04/22 04:40:34;;;;;;;;;;;10.00;68.40;;;;;;5021824;28;19929;-70
2022/04/22 04:43:01;;;;;;;;;;;9.90;68.60;;;;;;5024096;28;19944;-70
2022/04/22 04:45:29;;;;;;;;;;;9.90;68.60;;;;;;5020737;28;20300;-70
2022/04/22 04:47:55;;;;;;;;;;;9.90;68.60;;;;;;5019942;28;20739;-69
2022/04/22 04:50:22;;;;;;;;;;;9.90;68.60;;;;;;5021658;28;19929;-69
2022/04/22 04:52:48;;;;;;;;;;;9.90;68.60;;;;;;5022250;28;19975;-70
2022/04/22 04:55:15;;;;;;;;;;;9.80;68.70;;;;;;5013862;28;19937;-69
2022/04/22 04:57:42;;;;;;;;;;;9.80;68.80;;;;;;5026490;28;20481;-69
2022/04/22 05:00:10;;;;;;;;;;;9.80;68.80;;;;;;5023255;28;20012;-68
2022/04/22 05:02:38;;;;;;;;;;;9.80;68.80;;;;;;5024626;28;19929;-70
2022/04/22 05:05:05;;;;;;;;;;;9.80;68.90;;;;;;5019877;28;19951;-70
2022/04/22 05:07:31;;;;;;;;;;;9.80;69.00;;;;;;5025667;28;20032;-70
2022/04/22 05:09:58;;;;;;;;;;;9.70;68.90;;;;;;5022255;28;19929;-70
2022/04/22 05:12:24;;;;;;;;;;;9.70;68.90;;;;;;5022329;28;19929;-69
2022/04/22 05:14:51;;;;;;;;;;;9.70;69.10;;;;;;5020338;28;19988;-69
2022/04/22 05:17:18;;;;;;;;;;;9.70;69.10;;;;;;5022751;28;19960;-68
2022/04/22 05:19:46;;;;;;;;;;;9.70;69.20;;;;;;5022855;28;19929;-70
2022/04/22 05:22:12;;;;;;;;;;;9.70;69.20;;;;;;5018254;28;20405;-70
2022/04/22 05:24:39;;;;;;;;;;;9.70;69.30;;;;;;5022407;28;19929;-69
2022/04/22 05:27:05;;;;;;;;;;;9.60;69.30;;;;;;5022065;28;19929;-69
2022/04/22 05:35:01;;;;;;;;;;;9.60;69.40;;;;;;5022395;28;19983;-69
2022/04/22 05:37:28;;;;;;;;;;;9.60;69.40;;;;;;5021530;28;19952;-69
2022/04/22 05:39:54;;;;;;;;;;;9.60;69.50;;;;;;5017840;28;19929;-70
2022/04/22 05:42:21;;;;;;;;;;;9.50;69.50;;;;;;5025990;28;19933;-69
2022/04/22 05:44:48;;;;;;;;;;;9.50;69.60;;;;;;5015293;28;20313;-70
2022/04/22 05:47:14;;;;;;;;;;;9.50;69.60;;;;;;5022531;28;20413;-70
2022/04/22 05:49:41;;;;;;;;;;;9.50;69.60;;;;;;5021525;28;19933;-69
2022/04/22 05:52:09;;;;;;;;;;;9.50;69.60;;;;;;5022241;28;19929;-69
2022/04/22 05:54:36;;;;;;;;;;;9.50;69.70;;;;;;5018612;28;19936;-69
2022/04/22 05:57:03;;;;;;;;;;;9.50;69.70;;;;;;5025427;28;19929;-70
2022/04/22 05:59:29;;;;;;;;;;;9.50;69.70;;;;;;5024520;28;19969;-69
2022/04/22 06:01:56;;;;;;;;;;;9.50;69.70;;;;;;5021759;28;20752;-70
2022/04/22 06:04:22;;;;;;;;;;;9.50;69.70;;;;;;5022072;28;19929;-69
2022/04/22 06:06:49;;;;;;;;;;;9.50;69.80;;;;;;5025160;28;19983;-69
2022/04/22 06:12:01;;;;;;;;;;;9.50;69.90;;;;;;5018323;28;19940;-69
2022/04/22 06:14:28;;;;;;;;;;;9.50;69.90;;;;;;5019218;28;19929;-69
2022/04/22 06:16:54;;;;;;;;;;;9.50;69.90;;;;;;5022551;28;19929;-70
2022/04/22 06:19:21;;;;;;;;;;;9.50;70.00;;;;;;5017903;28;19995;-69
2022/04/22 06:21:47;;;;;;;;;;;9.50;70.10;;;;;;5020197;28;20760;-68
2022/04/22 06:24:14;;;;;;;;;;;9.50;70.10;;;;;;5021057;28;20010;-68
2022/04/22 06:26:42;;;;;;;;;;;9.50;70.10;;;;;;5025772;28;19933;-69
2022/04/22 06:29:09;;;;;;;;;;;9.50;70.30;;;;;;5023485;28;19951;-68
2022/04/22 06:31:36;;;;;;;;;;;9.50;70.30;;;;;;5026123;28;20336;-69
2022/04/22 06:34:02;;;;;;;;;;;9.40;70.30;;;;;;5021626;28;20016;-69
2022/04/22 06:36:30;;;;;;;;;;;9.50;70.40;;;;;;5019872;28;19987;-69
2022/04/22 06:38:58;;;;;;;;;;;9.50;70.50;;;;;;5020556;28;19933;-68
2022/04/22 06:46:55;;;;;;;;;;;9.50;70.50;;;;;;5023285;28;19936;-68
2022/04/22 06:49:23;;;;;;;;;;;9.50;70.60;;;;;;5021305;28;19929;-69
2022/04/22 06:51:50;;;;;;;;;;;9.50;70.70;;;;;;5020625;28;19929;-69
2022/04/22 06:54:17;;;;;;;;;;;9.50;70.70;;;;;;5019599;28;19929;-69
2022/04/22 06:56:44;;;;;;;;;;;9.50;70.80;;;;;;5021214;28;19933;-69
2022/04/22 06:59:12;;;;;;;;;;;9.50;70.70;;;;;;5020011;28;19939;-69
2022/04/22 07:01:39;;;;;;;;;;;9.50;70.70;;;;;;5021966;28;19936;-70
2022/04/22 07:04:06;;;;;;;;;;;9.50;70.70;;;;;;5017081;28;19929;-69
2022/04/22 07:06:33;;;;;;;;;;;9.50;70.60;;;;;;5021902;28;19929;-69
2022/04/22 07:08:59;;;;;;;;;;;9.50;70.60;;;;;;5022149;28;19941;-70
2022/04/22 07:11:27;;;;;;;;;;;9.50;70.60;;;;;;5021485;28;19933;-69
2022/04/22 07:13:54;;;;;;;;;;;9.50;70.70;;;;;;5019287;28;19928;-70
2022/04/22 07:16:22;;;;;;;;;;;9.60;70.70;;;;;;5021190;28;19937;-69
2022/04/22 07:18:48;;;;;;;;;;;9.60;70.80;;;;;;5027467;28;19928;-69
2022/04/22 07:21:15;;;;;;;;;;;9.60;70.80;;;;;;5026057;28;20368;-69
2022/04/22 07:23:42;;;;;;;;;;;9.60;70.70;;;;;;5023037;28;20429;-69
2022/04/22 07:26:09;;;;;;;;;;;9.60;70.60;;;;;;5027203;28;19959;-69
2022/04/22 07:28:36;;;;;;;;;;;9.70;70.80;;;;;;5024450;28;20036;-68
2022/04/22 07:31:03;;;;;;;;;;;9.70;70.90;;;;;;5027002;28;19936;-69
2022/04/22 07:33:31;;;;;;;;;;;9.70;70.90;;;;;;5023836;28;20051;-69
2022/04/22 07:35:59;;;;;;;;;;;9.70;70.80;;;;;;5026360;28;19933;-69
2022/04/22 07:38:26;;;;;;;;;;;9.70;71.20;;;;;;5025477;28;19936;-69
2022/04/22 07:40:53;;;;;;;;;;;9.80;71.20;;;;;;5036130;28;19928;-70
2022/04/22 07:48:53;;;;;;;;;;;9.80;70.90;;;;;;5026120;28;20031;-69
2022/04/22 07:51:19;;;;;;;;;;;9.80;70.90;;;;;;5028208;28;20008;-69
2022/04/22 07:53:46;;;;;;;;;;;9.90;70.90;;;;;;5022068;28;20036;-69
2022/04/22 07:56:12;;;;;;;;;;;9.90;70.80;;;;;;5023855;28;19933;-69
2022/04/22 07:58:39;;;;;;;;;;;9.90;70.70;;;;;;5024878;28;19929;-69
2022/04/22 08:01:05;;;;;;;;;;;9.90;70.70;;;;;;5025860;28;19983;-70
2022/04/22 08:03:32;;;;;;;;;;;10.00;70.70;;;;;;5024830;28;19939;-69
2022/04/22 08:06:00;;;;;;;;;;;9.90;70.80;;;;;;5025142;28;20019;-69
2022/04/22 08:08:28;;;;;;;;;;;10.00;70.80;;;;;;5024915;28;19929;-70
2022/04/22 08:10:55;;;;;;;;;;;10.00;70.60;;;;;;5025670;28;19933;-68
2022/04/22 08:13:21;;;;;;;;;;;10.00;70.60;;;;;;5027013;28;19929;-70
2022/04/22 08:15:48;;;;;;;;;;;10.00;70.50;;;;;;5022030;28;19925;-69
2022/04/22 08:18:15;;;;;;;;;;;10.00;70.50;;;;;;5024337;28;19932;-68
2022/04/22 08:20:41;;;;;;;;;;;10.10;70.60;;;;;;5024762;28;19932;-69
2022/04/22 08:23:09;;;;;;;;;;;10.10;70.60;;;;;;5022847;28;20387;-69
2022/04/22 08:25:36;;;;;;;;;;;10.10;70.70;;;;;;5025213;28;19936;-69
2022/04/22 08:28:03;;;;;;;;;;;10.10;70.60;;;;;;5024539;28;20052;-69
2022/04/22 08:30:29;;;;;;;;;;;10.20;70.60;;;;;;5023200;28;19930;-69
2022/04/22 08:32:56;;;;;;;;;;;10.20;70.60;;;;;;5027568;28;19932;-69
2022/04/22 08:35:22;;;;;;;;;;;10.20;70.80;;;;;;5024977;28;20301;-69
2022/04/22 08:37:49;;;;;;;;;;;10.30;70.80;;;;;;5023719;28;20086;-70
2022/04/22 08:40:17;;;;;;;;;;;10.40;70.70;;;;;;5027601;28;19925;-70
2022/04/22 08:42:43;;;;;;;;;;;10.40;70.60;;;;;;5024161;28;19933;-67
2022/04/22 08:45:10;;;;;;;;;;;10.40;70.50;;;;;;5024197;28;19968;-69
2022/04/22 08:50:22;;;;;;;;;;;10.50;70.30;;;;;;5024107;28;19932;-69
2022/04/22 08:52:51;;;;;;;;;;;10.50;70.10;;;;;;5021504;28;19933;-70
2022/04/22 08:55:19;;;;;;;;;;;10.50;70.20;;;;;;5021037;28;19933;-69
2022/04/22 08:57:47;;;;;;;;;;;10.60;70.10;;;;;;5021492;28;19932;-70
2022/04/22 09:00:14;;;;;;;;;;;10.60;70.10;;;;;;5022504;28;19952;-70
2022/04/22 09:02:41;;;;;;;;;;;10.70;70.00;;;;;;5021276;28;19936;-70
2022/04/22 09:05:08;;;;;;;;;;;10.70;70.00;;;;;;5020437;28;19999;-68
2022/04/22 09:07:35;;;;;;;;;;;10.80;70.00;;;;;;5026796;28;20334;-69
2022/04/22 09:10:02;;;;;;;;;;;10.80;70.00;;;;;;5022241;28;19933;-68
2022/04/22 09:12:30;;;;;;;;;;;10.90;69.80;;;;;;5017845;28;19976;-69
2022/04/22 09:14:57;;;;;;;;;;;10.90;69.60;;;;;;5019588;28;19936;-69
2022/04/22 09:17:25;;;;;;;;;;;10.90;69.40;;;;;;5023051;28;19937;-70
2022/04/22 09:19:53;;;;;;;;;;;11.10;69.30;;;;;;5026668;28;19929;-70
2022/04/22 09:22:20;;;;;;;;;;;11.10;69.20;;;;;;5016687;28;19937;-70
2022/04/22 09:24:48;;;;;;;;;;;11.20;68.90;;;;;;5023244;28;19936;-70
2022/04/22 09:27:15;;;;;;;;;;;11.30;68.80;;;;;;5022210;28;20025;-69
2022/04/22 09:29:52;;;;;;;;;;;11.30;68.60;;;;;;5020661;28;19929;-68
2022/04/22 09:32:22;;;;;;;;;;;11.40;68.30;;;;;;5016697;28;19983;-69
2022/04/22 09:34:48;;;;;;;;;;;11.50;68.20;;;;;;5029976;28;19936;-70
2022/04/22 09:42:47;;;;;;;;;;;11.60;67.70;;;;;;5023157;28;20022;-69
2022/04/22 09:45:16;;;;;;;;;;;11.70;67.30;;;;;;5016798;28;20340;-69
2022/04/22 09:47:43;;;;;;;;;;;11.80;67.00;;;;;;5022496;28;19929;-70
2022/04/22 09:50:11;;;;;;;;;;;11.80;66.90;;;;;;5022575;28;19988;-70
2022/04/22 09:52:43;;;;;;;;;;;11.90;66.80;;;;;;5019217;28;19929;-69
2022/04/22 09:55:10;;;;;;;;;;;11.90;66.50;;;;;;5020098;28;19972;-69
2022/04/22 09:57:51;;;;;;;;;;;12.00;66.30;;;;;;5024326;28;19935;-70
2022/04/22 10:00:19;;;;;;;;;;;12.10;66.10;;;;;;5018876;28;19935;-70
2022/04/22 10:02:49;;;;;;;;;;;12.20;66.00;;;;;;5020745;28;19929;-69
2022/04/22 10:05:17;;;;;;;;;;;12.20;65.80;;;;;;5025715;28;19929;-69
2022/04/22 10:07:43;;;;;;;;;;;12.30;65.60;;;;;;5021363;28;19937;-69
2022/04/22 10:10:11;;;;;;;;;;;12.40;65.40;;;;;;5022841;28;19929;-69
2022/04/22 10:12:39;;;;;;;;;;;12.40;65.20;;;;;;5016200;28;19933;-69
2022/04/22 10:15:08;;;;;;;;;;;12.50;65.20;;;;;;5019826;28;19933;-69
2022/04/22 10:17:37;;;;;;;;;;;12.60;65.00;;;;;;5025059;28;19928;-70
2022/04/22 10:20:04;;;;;;;;;;;12.60;64.80;;;;;;5022915;28;19933;-69
2022/04/22 10:22:33;;;;;;;;;;;12.70;64.50;;;;;;5017333;28;19929;-69
2022/04/22 10:25:02;;;;;;;;;;;12.80;64.40;;;;;;5021792;28;19929;-70
2022/04/22 10:27:31;;;;;;;;;;;12.80;64.20;;;;;;5027851;28;19929;-69
2022/04/22 10:29:59;;;;;;;;;;;12.90;64.00;;;;;;5021328;28;19939;-70
2022/04/22 10:32:27;;;;;;;;;;;13.00;63.80;;;;;;5022542;28;19929;-68
2022/04/22 10:34:59;;;;;;;;;;;13.00;63.70;;;;;;5025306;28;20390;-69
2022/04/22 10:37:27;;;;;;;;;;;13.10;63.60;;;;;;5020162;28;19939;-70
2022/04/22 10:39:54;;;;;;;;;;;13.20;63.50;;;;;;5019568;28;19932;-69
2022/04/22 10:42:29;;;;;;;;;;;13.20;63.30;;;;;;5022902;28;19929;-70
2022/04/22 10:47:46;;;;;;;;;;;13.40;62.80;;;;;;5020803;28;20733;-70
2022/04/22 10:50:28;;;;;;;;;;;13.40;62.70;;;;;;5016545;28;19969;-70
2022/04/22 10:53:02;;;;;;;;;;;13.50;62.60;;;;;;5018811;28;19939;-70
2022/04/22 10:55:30;;;;;;;;;;;13.60;62.30;;;;;;5020757;28;19929;-71
2022/04/22 10:58:15;;;;;;;;;;;13.60;62.20;;;;;;5021504;28;20735;-70
2022/04/22 11:00:42;;;;;;;;;;;13.70;62.00;;;;;;5020373;28;19930;-70
2022/04/22 11:03:14;;;;;;;;;;;13.80;61.80;;;;;;5021564;28;20018;-70
2022/04/22 11:05:47;;;;;;;;;;;13.80;61.70;;;;;;5018505;28;19957;-70
2022/04/22 11:08:24;;;;;;;;;;;13.90;61.60;;;;;;5020999;28;19929;-68
2022/04/22 11:10:59;;;;;;;;;;;14.00;61.50;;;;;;5024824;28;19979;-66
2022/04/22 11:13:28;;;;;;;;;;;14.00;61.20;;;;;;5019435;28;20047;-71
2022/04/22 11:15:57;;;;;;;;;;;14.10;61.10;;;;;;5019204;28;19929;-70
2022/04/22 11:18:23;;;;;;;;;;;14.20;61.10;;;;;;5021513;28;19940;-70
2022/04/22 11:20:53;;;;;;;;;;;14.20;60.70;;;;;;5030207;28;19932;-70
2022/04/22 11:23:19;;;;;;;;;;;14.30;60.60;;;;;;5020411;28;19933;-70
2022/04/22 11:25:46;;;;;;;;;;;14.40;60.40;;;;;;5021839;28;20008;-66
2022/04/22 11:28:13;;;;;;;;;;;14.40;60.30;;;;;;5027749;28;19979;-66
2022/04/22 11:30:40;;;;;;;;;;;14.50;60.20;;;;;;5020240;28;20003;-68
2022/04/22 11:33:13;;;;;;;;;;;14.60;60.10;;;;;;5019751;28;20340;-69
2022/04/22 11:35:40;;;;;;;;;;;14.60;59.90;;;;;;5030559;28;19964;-69
2022/04/22 11:38:07;;;;;;;;;;;14.60;59.70;;;;;;5020528;28;20487;-70
2022/04/22 11:40:35;;;;;;;;;;;14.70;59.50;;;;;;5025288;28;20409;-69
2022/04/22 11:43:05;;;;;;;;;;;14.80;59.30;;;;;;5022077;28;20290;-69
2022/04/22 11:45:35;;;;;;;;;;;14.90;59.20;;;;;;5024701;28;19928;-69
2022/04/22 11:48:06;;;;;;;;;;;15.00;59.10;;;;;;5020106;28;19956;-69
2022/04/22 11:50:37;;;;;;;;;;;15.00;59.10;;;;;;5023051;28;19937;-69
2022/04/22 11:53:07;;;;;;;;;;;15.10;59.10;;;;;;5016828;28;20134;-70
2022/04/22 11:55:36;;;;;;;;;;;15.20;58.80;;;;;;5020123;28;19941;-69
2022/04/22 11:58:03;;;;;;;;;;;15.20;58.70;;;;;;5020286;28;19968;-69
2022/04/22 12:05:58;;;;;;;;;;;15.50;58.30;;;;;;5027758;28;19971;-69
2022/04/22 12:08:25;;;;;;;;;;;15.50;58.10;;;;;;5026015;28;19988;-69
2022/04/22 12:10:53;;;;;;;;;;;15.60;58.00;;;;;;5024475;28;19929;-68
2022/04/22 12:13:19;;;;;;;;;;;15.60;58.00;;;;;;5022849;28;19929;-69
2022/04/22 12:15:48;;;;;;;;;;;15.70;57.80;;;;;;5024563;28;19925;-69
2022/04/22 12:18:30;;;;;;;;;;;15.80;57.70;;;;;;5025654;28;19940;-67
2022/04/22 12:20:57;;;;;;;;;;;15.80;57.30;;;;;;5020428;28;19929;-66
2022/04/22 12:23:24;;;;;;;;;;;15.90;57.20;;;;;;5021919;28;20404;-68
2022/04/22 12:25:55;;;;;;;;;;;15.90;57.10;;;;;;5021013;28;19936;-70
2022/04/22 12:28:24;;;;;;;;;;;16.00;56.90;;;;;;5020619;28;20394;-69
2022/04/22 12:30:50;;;;;;;;;;;16.10;56.90;;;;;;5024614;28;19929;-69
2022/04/22 12:33:17;;;;;;;;;;;16.10;56.90;;;;;;5028143;28;19928;-70
2022/04/22 12:35:45;;;;;;;;;;;16.20;56.90;;;;;;5031288;28;20412;-70
2022/04/22 12:38:13;;;;;;;;;;;16.20;56.80;;;;;;5022510;28;19963;-67
2022/04/22 12:40:47;;;;;;;;;;;16.30;56.50;;;;;;5031362;28;19932;-69
2022/04/22 12:43:27;;;;;;;;;;;16.40;56.50;;;;;;5025102;28;20750;-70
2022/04/22 12:54:11;;;;;;;;;;;16.60;56.00;;;;;;5021083;28;19936;-70
2022/04/22 12:56:38;;;;;;;;;;;16.70;55.90;;;;;;5021675;28;19971;-69
2022/04/22 12:59:07;;;;;;;;;;;16.70;55.80;;;;;;5023151;28;19933;-70
2022/04/22 13:01:37;;;;;;;;;;;16.80;55.70;;;;;;5023389;28;19929;-70
2022/04/22 13:04:04;;;;;;;;;;;16.90;55.60;;;;;;5022768;28;20025;-70
2022/04/22 13:06:40;;;;;;;;;;;16.90;55.60;;;;;;5027451;28;19936;-69
2022/04/22 13:09:09;;;;;;;;;;;17.00;55.50;;;;;;5022216;28;19929;-71
2022/04/22 13:11:35;;;;;;;;;;;17.00;55.40;;;;;;5017957;28;19933;-70
2022/04/22 13:14:03;;;;;;;;;;;17.10;55.30;;;;;;5019141;28;19936;-70
2022/04/22 13:16:31;;;;;;;;;;;17.20;55.00;;;;;;5019930;28;19936;-70
2022/04/22 13:18:58;;;;;;;;;;;17.20;54.90;;;;;;5022140;28;20031;-69
2022/04/22 13:21:24;;;;;;;;;;;17.30;55.00;;;;;;5021327;28;19936;-70
2022/04/22 13:23:51;;;;;;;;;;;17.40;54.90;;;;;;5023405;28;19936;-70
2022/04/22 13:26:18;;;;;;;;;;;17.40;54.70;;;;;;5024673;28;19929;-70
2022/04/22 13:28:44;;;;;;;;;;;17.50;54.60;;;;;;5021953;28;19941;-70
2022/04/22 13:31:11;;;;;;;;;;;17.50;54.30;;;;;;5022180;28;20480;-70
2022/04/22 13:33:39;;;;;;;;;;;17.60;54.10;;;;;;5023560;28;19930;-70
2022/04/22 13:36:08;;;;;;;;;;;17.70;54.10;;;;;;5018021;28;19987;-70
2022/04/22 13:38:37;;;;;;;;;;;17.70;53.90;;;;;;5012483;28;20300;-71
2022/04/22 13:41:04;;;;;;;;;;;17.80;53.90;;;;;;5023138;28;19929;-71
2022/04/22 13:43:31;;;;;;;;;;;17.80;53.70;;;;;;5023719;28;20388;-71
2022/04/22 13:54:11;;;;;;;;;;;18.10;53.10;;;;;;5020129;28;19931;-70
2022/04/22 13:56:38;;;;;;;;;;;18.20;53.10;;;;;;5021580;28;20348;-69
2022/04/22 13:59:06;;;;;;;;;;;18.20;52.90;;;;;;5023054;28;19933;-70
2022/04/22 14:01:32;;;;;;;;;;;18.20;52.90;;;;;;5022628;28;19933;-70
2022/04/22 14:04:00;;;;;;;;;;;18.30;52.80;;;;;;5022260;28;19929;-70
2022/04/22 14:06:27;;;;;;;;;;;18.40;52.70;;;;;;5022801;28;19929;-68
2022/04/22 14:08:54;;;;;;;;;;;18.50;52.40;;;;;;5021613;28;19999;-70
2022/04/22 14:11:20;;;;;;;;;;;18.50;52.20;;;;;;5019355;28;19983;-70
2022/04/22 14:13:47;;;;;;;;;;;18.60;52.00;;;;;;5019460;28;19932;-70
2022/04/22 14:16:13;;;;;;;;;;;18.60;51.80;;;;;;5022735;28;19928;-70
2022/04/22 14:18:40;;;;;;;;;;;18.70;51.90;;;;;;5025922;28;19929;-70
2022/04/22 14:21:08;;;;;;;;;;;18.80;51.90;;;;;;5026081;28;19991;-69
2022/04/22 14:23:34;;;;;;;;;;;18.80;51.70;;;;;;5017305;28;19937;-70
2022/04/22 14:26:01;;;;;;;;;;;18.90;51.40;;;;;;5024800;28;19956;-69
2022/04/22 14:28:28;;;;;;;;;;;18.90;51.30;;;;;;5023715;28;20365;-68
2022/04/22 14:30:55;;;;;;;;;;;19.00;51.40;;;;;;5027877;28;20702;-70
2022/04/22 14:33:22;;;;;;;;;;;19.00;51.40;;;;;;5024111;28;20401;-70
2022/04/22 14:35:48;;;;;;;;;;;19.10;51.40;;;;;;5036148;28;19928;-69
2022/04/22 14:38:17;;;;;;;;;;;19.20;51.30;;;;;;5024227;28;19937;-68
2022/04/22 14:40:43;;;;;;;;;;;19.20;51.20;;;;;;5026872;28;20004;-70
2022/04/22 14:43:10;;;;;;;;;;;19.30;50.90;;;;;;5025787;28;19994;-70
2022/04/22 14:45:37;;;;;;;;;;;19.30;50.20;;;;;;5026085;28;20443;-71
2022/04/22 14:48:04;;;;;;;;;;;19.40;49.90;;;;;;5023010;28;19929;-70
2022/04/22 14:50:32;;;;;;;;;;;19.50;49.80;;;;;;5022773;28;19925;-69
2022/04/22 14:52:58;;;;;;;;;;;19.50;50.00;;;;;;5018633;28;19929;-71
2022/04/22 14:55:26;;;;;;;;;;;19.60;49.60;;;;;;5020272;28;19935;-71
2022/04/22 14:57:53;;;;;;;;;;;19.70;49.20;;;;;;5019216;28;19936;-69
2022/04/22 15:00:19;;;;;;;;;;;19.70;49.20;;;;;;5019048;28;19933;-71
2022/04/22 15:02:46;;;;;;;;;;;19.70;49.30;;;;;;5021065;28;20011;-70
2022/04/22 15:05:13;;;;;;;;;;;19.80;49.40;;;;;;5023001;28;19929;-70
2022/04/22 15:07:40;;;;;;;;;;;19.80;49.30;;;;;;5020995;28;19945;-70
2022/04/22 15:10:07;;;;;;;;;;;19.80;49.10;;;;;;5022993;28;19940;-70
2022/04/22 15:12:35;;;;;;;;;;;19.90;48.80;;;;;;5021086;28;19933;-70
2022/04/22 15:15:03;;;;;;;;;;;19.90;48.80;;;;;;5019103;28;19948;-70
2022/04/22 15:25:42;;;;;;;;;;;20.00;48.60;;;;;;5022311;28;20731;-70
2022/04/22 15:28:10;;;;;;;;;;;20.00;48.70;;;;;;5020881;28;19932;-69
2022/04/22 15:30:55;;;;;;;;;;;20.00;48.40;;;;;;5020253;28;19979;-71
2022/04/22 15:33:22;;;;;;;;;;;20.10;49.10;;;;;;5023977;28;19936;-70
2022/04/22 15:35:48;;;;;;;;;;;20.10;48.40;;;;;;5022675;28;19933;-70
2022/04/22 15:38:15;;;;;;;;;;;20.20;48.70;;;;;;5019988;28;19933;-70
2022/04/22 15:40:41;;;;;;;;;;;20.20;48.50;;;;;;5026909;28;19937;-70
2022/04/22 15:43:09;;;;;;;;;;;20.20;48.40;;;;;;5024509;28;20290;-68
2022/04/22 15:45:37;;;;;;;;;;;20.20;48.10;;;;;;5024554;28;20023;-71
2022/04/22 15:48:03;;;;;;;;;;;20.30;47.90;;;;;;5028089;28;19928;-70
2022/04/22 15:50:30;;;;;;;;;;;20.30;48.10;;;;;;5028857;28;19948;-72
2022/04/22 15:52:57;;;;;;;;;;;20.30;48.10;;;;;;5019756;28;19944;-69